Terminal Aerodrome Forecast
Issued by NWS

Home | Current Version | Previous Version | Text Only | Print | Product List | Glossary On
Versions: 1 2 3 4 5 6 7 8 9 10 11 12 13 14 15 16 17
000
FTUS43 KDVN 302300 RRA
TAFBRL
TAF
KBRL 302341Z 3100/3124 VRB05KT P6SM VCSH BKN060 OVC080
     FM310600 34012G22KT P6SM SCT020 OVC030
     FM311000 34018G28KT P6SM SCT020 BKN030
     FM311500 36012G22KT P6SM SCT040=

USA.gov is the U.S. government's official web portal to all federal, state and local government web resources and services.